Bayview, Texas
Current Conditions -  °F | °C
As of 8:53 PM on Wednesday 22 Oct 2014 (Local Time) from KPIL Reporting Station
Few Clouds Few Clouds  
Wind Chill: 78°   Ceiling: Unl
Heat Index: 80°   Visibility: 8mi
Dew Point: 68°   Wind: 8mph
Humidity: 71%   Direction: 60°ENE
Pressure: 30.01"   Gusts: NA
Location:  26.1063°N, 97.4763°W
Report Text: KPIL 230153Z AUTO 06007KT 8SM FEW031 26/20 A3001 RMK AO2 SLP160 T02560200
Loading
Personal Weather Stations






























Interactive Weather Map
Tropical Storm Tracking
New forecast layout! Learn more

10-Day Weather Forecast

Advertisements
Track Severe Weather on mobile